createdAt,value
2016-05-07T00:00:40.546Z,21.09
2016-05-07T00:01:40.673Z,21.13
2016-05-07T00:02:40.520Z,21.18
2016-05-07T00:03:40.679Z,21.09
2016-05-07T00:04:40.650Z,21.13
2016-05-07T00:05:40.637Z,21.11
2016-05-07T00:06:40.468Z,21.12
2016-05-07T00:07:41.518Z,21.08
2016-05-07T00:08:40.598Z,21.12
2016-05-07T00:09:40.586Z,21.13
2016-05-07T00:10:40.416Z,21.15
2016-05-07T00:11:40.951Z,21.11
2016-05-07T00:12:40.391Z,21.12
2016-05-07T00:13:40.533Z,21.13
2016-05-07T00:14:40.522Z,21.12
2016-05-07T00:15:40.774Z,21.15
2016-05-07T00:16:40.494Z,21.09
2016-05-07T00:17:40.326Z,21.09
2016-05-07T00:18:40.469Z,21.01
2016-05-07T00:19:40.472Z,21.16
2016-05-07T00:20:40.444Z,21.11
2016-05-07T00:21:40.430Z,21.15
2016-05-07T00:22:40.277Z,21.06
2016-05-07T00:23:40.263Z,21.06
2016-05-07T00:24:40.251Z,21.11
2016-05-07T00:25:40.238Z,21.15
2016-05-07T00:26:40.397Z,21
2016-05-07T00:27:40.384Z,21.09
2016-05-07T00:28:40.199Z,21.06
2016-05-07T00:29:40.342Z,21.06
2016-05-07T00:30:40.424Z,21.08
2016-05-07T00:31:40.817Z,21.15
2016-05-07T00:32:40.288Z,21.12
2016-05-07T00:33:40.306Z,21.09
2016-05-07T00:34:40.278Z,21.08
2016-05-07T00:35:40.265Z,20.98
2016-05-07T00:36:40.267Z,21.08
2016-05-07T00:37:40.115Z,21.08
2016-05-07T00:38:40.117Z,21.06
2016-05-07T00:39:40.214Z,21.09
2016-05-07T00:40:40.216Z,21.06
2016-05-07T00:41:40.062Z,21.05
2016-05-07T00:42:40.189Z,21.09
2016-05-07T00:43:40.021Z,21.05
2016-05-07T00:44:40.164Z,21.08
2016-05-07T00:45:40.011Z,21.11
2016-05-07T00:46:40.497Z,21.13
2016-05-07T00:47:39.969Z,21
2016-05-07T00:48:40.113Z,21.09
2016-05-07T00:49:40.099Z,21
2016-05-07T00:50:40.086Z,21.01
2016-05-07T00:51:40.089Z,20.97
2016-05-07T00:52:40.060Z,20.94
2016-05-07T00:53:40.063Z,21.05
2016-05-07T00:54:40.488Z,20.93
2016-05-07T00:55:40.038Z,20.94
2016-05-07T00:56:39.869Z,20.94
2016-05-07T00:57:39.995Z,20.97
2016-05-07T00:58:39.983Z,21.01
2016-05-07T00:59:39.970Z,20.98
2016-05-07T01:00:39.973Z,20.91
2016-05-07T01:01:39.959Z,20.97
2016-05-07T01:02:40.493Z,20.94
2016-05-07T01:03:39.950Z,20.94
2016-05-07T01:04:39.765Z,20.91
2016-05-07T01:05:39.737Z,20.96
2016-05-07T01:06:39.911Z,20.9
2016-05-07T01:07:39.882Z,20.94
2016-05-07T01:08:39.869Z,20.94
2016-05-07T01:09:39.700Z,20.91
2016-05-07T01:10:40.328Z,20.83
2016-05-07T01:11:39.831Z,20.87
2016-05-07T01:12:39.817Z,20.88
2016-05-07T01:13:39.648Z,20.85
2016-05-07T01:14:39.636Z,20.93
2016-05-07T01:15:39.778Z,20.85
2016-05-07T01:16:39.766Z,20.93
2016-05-07T01:17:39.597Z,20.85
2016-05-07T01:18:39.583Z,20.87
2016-05-07T01:19:39.727Z,20.87
2016-05-07T01:20:39.713Z,20.82
2016-05-07T01:21:39.717Z,20.85
2016-05-07T01:22:39.719Z,20.82
2016-05-07T01:23:39.675Z,20.9
2016-05-07T01:24:39.677Z,21.01
2016-05-07T01:25:39.666Z,20.97
2016-05-07T01:26:39.745Z,20.96
2016-05-07T01:27:40.030Z,20.87
2016-05-07T01:28:39.643Z,20.83
2016-05-07T01:29:39.457Z,20.87
2016-05-07T01:30:39.600Z,20.97
2016-05-07T01:31:39.588Z,20.85
2016-05-07T01:32:39.418Z,20.9
2016-05-07T01:33:39.577Z,20.87
2016-05-07T01:34:39.768Z,20.82
2016-05-07T01:35:39.536Z,20.87
2016-05-07T01:36:39.523Z,20.85
2016-05-07T01:37:39.509Z,20.85
2016-05-07T01:38:39.497Z,20.87
2016-05-07T01:39:39.500Z,20.91
2016-05-07T01:40:39.471Z,20.91
2016-05-07T01:41:39.467Z,20.87
2016-05-07T01:42:39.989Z,20.93
2016-05-07T01:43:39.445Z,20.91
2016-05-07T01:44:39.413Z,20.93
2016-05-07T01:45:39.415Z,20.87
2016-05-07T01:46:39.402Z,20.81
2016-05-07T01:47:39.374Z,20.83
2016-05-07T01:48:39.220Z,20.82
2016-05-07T01:49:39.363Z,20.81
2016-05-07T01:50:40.554Z,20.76
2016-05-07T01:51:39.337Z,20.82
2016-05-07T01:52:39.324Z,20.82
2016-05-07T01:53:39.156Z,20.75
2016-05-07T01:54:39.298Z,20.76
2016-05-07T01:55:39.130Z,20.73
2016-05-07T01:56:39.289Z,20.76
2016-05-07T01:57:39.228Z,20.79
2016-05-07T01:58:39.247Z,20.85
2016-05-07T01:59:39.234Z,20.78
2016-05-07T02:00:39.221Z,20.85
2016-05-07T02:01:39.208Z,20.85
2016-05-07T02:02:39.195Z,20.81
2016-05-07T02:03:39.026Z,20.79
2016-05-07T02:04:39.029Z,20.78
2016-05-07T02:05:39.157Z,20.81
2016-05-07T02:06:39.144Z,20.68
2016-05-07T02:07:39.130Z,20.76
2016-05-07T02:08:39.118Z,20.75
2016-05-07T02:09:39.104Z,20.83
2016-05-07T02:10:39.107Z,20.83
2016-05-07T02:11:39.094Z,20.9
2016-05-07T02:12:40.644Z,20.83
2016-05-07T02:13:39.053Z,20.93
2016-05-07T02:14:38.899Z,20.87
2016-05-07T02:15:39.026Z,20.87
2016-05-07T02:16:39.030Z,20.81
2016-05-07T02:17:39.032Z,20.88
2016-05-07T02:18:39.020Z,20.85
2016-05-07T02:19:38.990Z,20.91
2016-05-07T02:20:38.978Z,20.88
2016-05-07T02:21:38.964Z,20.87
2016-05-07T02:22:38.953Z,20.85
2016-05-07T02:23:38.955Z,20.88
2016-05-07T02:24:38.914Z,20.88
2016-05-07T02:25:38.917Z,20.96
2016-05-07T02:26:38.731Z,20.91
2016-05-07T02:27:39.312Z,20.91
2016-05-07T02:28:38.878Z,20.78
2016-05-07T02:29:38.865Z,20.9
2016-05-07T02:30:38.695Z,20.87
2016-05-07T02:31:38.775Z,20.91
2016-05-07T02:32:38.825Z,20.85
2016-05-07T02:33:38.814Z,20.93
2016-05-07T02:34:38.644Z,20.9
2016-05-07T02:35:38.787Z,20.88
2016-05-07T02:36:38.774Z,20.87
2016-05-07T02:37:38.760Z,20.9
2016-05-07T02:38:38.748Z,20.87
2016-05-07T02:39:38.798Z,20.85
2016-05-07T02:40:38.722Z,20.85
2016-05-07T02:41:38.444Z,20.91
2016-05-07T02:42:39.727Z,20.83
2016-05-07T02:43:38.683Z,20.9
2016-05-07T02:44:38.671Z,20.94
2016-05-07T02:45:38.658Z,20.91
2016-05-07T02:46:38.488Z,20.88
2016-05-07T02:47:38.772Z,20.83
2016-05-07T02:48:38.618Z,20.91
2016-05-07T02:49:38.606Z,20.87
2016-05-07T02:50:38.593Z,20.88
2016-05-07T02:51:38.596Z,20.88
2016-05-07T02:52:38.582Z,20.83
2016-05-07T02:53:38.554Z,20.9
2016-05-07T02:54:38.557Z,20.9
2016-05-07T02:55:38.793Z,20.91
2016-05-07T02:56:38.375Z,20.91
2016-05-07T02:57:38.518Z,20.82
2016-05-07T02:58:38.505Z,20.88
2016-05-07T02:59:38.492Z,20.88
2016-05-07T03:00:38.479Z,20.82
2016-05-07T03:01:38.466Z,20.82
2016-05-07T03:02:38.453Z,20.93
2016-05-07T03:03:38.800Z,20.9
2016-05-07T03:04:38.428Z,20.94
2016-05-07T03:05:38.414Z,20.83
2016-05-07T03:06:38.402Z,20.88
2016-05-07T03:07:38.232Z,20.87
2016-05-07T03:08:38.391Z,20.9
2016-05-07T03:09:38.363Z,20.88
2016-05-07T03:10:38.350Z,20.9
2016-05-07T03:11:38.836Z,20.85
2016-05-07T03:12:38.168Z,20.87
2016-05-07T03:13:38.310Z,20.91
2016-05-07T03:14:38.299Z,20.9
2016-05-07T03:15:38.144Z,20.82
2016-05-07T03:16:38.288Z,20.87
2016-05-07T03:17:38.274Z,20.9
2016-05-07T03:18:38.262Z,20.87
2016-05-07T03:19:38.842Z,20.88
2016-05-07T03:20:38.236Z,20.82
2016-05-07T03:21:38.223Z,20.83
2016-05-07T03:22:38.210Z,20.82
2016-05-07T03:23:38.025Z,20.81
2016-05-07T03:24:38.185Z,20.85
2016-05-07T03:25:37.843Z,20.79
2016-05-07T03:26:38.143Z,20.87
2016-05-07T03:27:38.848Z,20.87
2016-05-07T03:28:38.132Z,20.83
2016-05-07T03:29:38.134Z,20.85
2016-05-07T03:30:38.092Z,20.82
2016-05-07T03:31:38.094Z,20.85
2016-05-07T03:32:38.081Z,20.85
2016-05-07T03:33:38.083Z,20.85
2016-05-07T03:34:37.743Z,20.82
2016-05-07T03:35:38.089Z,20.79
2016-05-07T03:36:38.029Z,20.82
2016-05-07T03:37:38.016Z,20.81
2016-05-07T03:38:38.003Z,20.85
2016-05-07T03:39:37.990Z,20.83
2016-05-07T03:40:37.665Z,20.83
2016-05-07T03:41:37.980Z,20.87
2016-05-07T03:42:37.966Z,20.76
2016-05-07T03:43:38.141Z,20.81
2016-05-07T03:44:37.972Z,20.85
2016-05-07T03:45:37.757Z,20.85
2016-05-07T03:46:37.900Z,20.78
2016-05-07T03:47:37.902Z,20.78
2016-05-07T03:48:37.874Z,20.76
2016-05-07T03:49:37.721Z,20.78
2016-05-07T03:50:37.754Z,20.88
2016-05-07T03:51:38.148Z,20.79
2016-05-07T03:52:37.821Z,20.79
2016-05-07T03:53:37.871Z,20.87
2016-05-07T03:54:37.812Z,20.82
2016-05-07T03:55:37.798Z,20.83
2016-05-07T03:56:37.802Z,20.87
2016-05-07T03:57:37.773Z,20.9
2016-05-07T03:58:37.760Z,20.79
2016-05-07T03:59:37.590Z,20.82
2016-05-07T04:00:37.562Z,20.85
2016-05-07T04:01:37.706Z,20.85
2016-05-07T04:02:37.708Z,20.82
2016-05-07T04:03:37.695Z,20.81
2016-05-07T04:04:37.683Z,20.79
2016-05-07T04:05:37.514Z,20.81
2016-05-07T04:06:37.813Z,20.75
2016-05-07T04:07:37.628Z,20.73
2016-05-07T04:08:37.459Z,20.78
2016-05-07T04:09:37.617Z,20.76
2016-05-07T04:10:37.605Z,20.75
2016-05-07T04:11:37.436Z,20.79
2016-05-07T04:12:37.422Z,20.73
2016-05-07T04:13:37.410Z,20.76
2016-05-07T04:14:37.803Z,20.78
2016-05-07T04:15:37.383Z,20.72
2016-05-07T04:16:37.527Z,20.78
2016-05-07T04:17:37.530Z,20.75
2016-05-07T04:18:37.502Z,20.75
2016-05-07T04:19:37.488Z,20.73
2016-05-07T04:20:37.476Z,20.73
2016-05-07T04:21:37.306Z,20.79
2016-05-07T04:22:37.793Z,20.72
2016-05-07T04:23:37.437Z,20.81
2016-05-07T04:24:37.424Z,20.75
2016-05-07T04:25:37.254Z,20.78
2016-05-07T04:26:37.398Z,20.79
2016-05-07T04:27:37.635Z,20.83
2016-05-07T04:28:37.387Z,20.79
2016-05-07T04:29:37.359Z,20.73
2016-05-07T04:30:37.799Z,20.75
2016-05-07T04:31:37.192Z,20.82
2016-05-07T04:32:37.336Z,20.75
2016-05-07T04:33:37.339Z,20.81
2016-05-07T04:34:37.294Z,20.87
2016-05-07T04:35:37.313Z,20.85
2016-05-07T04:36:37.284Z,20.87
2016-05-07T04:37:37.114Z,20.81
2016-05-07T04:38:37.853Z,20.78
2016-05-07T04:39:37.089Z,20.78
2016-05-07T04:40:37.232Z,20.88
2016-05-07T04:41:37.203Z,20.88
2016-05-07T04:42:38.661Z,20.83
2016-05-07T04:43:37.178Z,20.83
2016-05-07T04:44:37.180Z,20.85
2016-05-07T04:45:37.168Z,20.87
2016-05-07T04:46:37.858Z,20.9
2016-05-07T04:47:37.142Z,20.83
2016-05-07T04:48:37.144Z,20.85
2016-05-07T04:49:37.116Z,20.76
2016-05-07T04:50:37.103Z,20.76
2016-05-07T04:51:36.934Z,20.85
2016-05-07T04:52:37.077Z,20.76
2016-05-07T04:53:37.079Z,20.82
2016-05-07T04:54:37.098Z,20.75
2016-05-07T04:55:37.023Z,20.87
2016-05-07T04:56:37.026Z,20.79
2016-05-07T04:57:37.934Z,20.78
2016-05-07T04:58:36.999Z,20.78
2016-05-07T04:59:36.987Z,20.87
2016-05-07T05:00:36.834Z,20.85
2016-05-07T05:01:36.961Z,20.78
2016-05-07T05:02:37.104Z,20.81
2016-05-07T05:03:36.637Z,20.83
2016-05-07T05:04:36.938Z,20.83
2016-05-07T05:05:36.909Z,20.87
2016-05-07T05:06:36.895Z,20.93
2016-05-07T05:07:36.898Z,20.87
2016-05-07T05:08:36.886Z,20.82
2016-05-07T05:09:36.858Z,20.85
2016-05-07T05:10:37.095Z,20.87
2016-05-07T05:11:36.691Z,20.87
2016-05-07T05:12:36.819Z,20.75
2016-05-07T05:13:36.805Z,20.91
2016-05-07T05:14:36.808Z,20.83
2016-05-07T05:15:36.780Z,20.91
2016-05-07T05:16:36.767Z,20.88
2016-05-07T05:17:36.613Z,20.93
2016-05-07T05:18:37.147Z,20.87
2016-05-07T05:19:36.728Z,20.88
2016-05-07T05:20:36.418Z,20.85
2016-05-07T05:21:36.719Z,20.88
2016-05-07T05:22:36.689Z,20.9
2016-05-07T05:23:36.691Z,20.91
2016-05-07T05:24:36.694Z,20.82
2016-05-07T05:25:36.760Z,20.87
2016-05-07T05:26:37.153Z,20.9
2016-05-07T05:27:36.499Z,20.82
2016-05-07T05:28:36.471Z,20.87
2016-05-07T05:29:36.615Z,20.98
2016-05-07T05:30:36.445Z,20.94
2016-05-07T05:31:36.588Z,20.82
2016-05-07T05:32:36.576Z,20.85
2016-05-07T05:33:36.765Z,20.96
2016-05-07T05:34:36.550Z,20.94
2016-05-07T05:35:36.537Z,20.94
2016-05-07T05:36:36.523Z,20.93
2016-05-07T05:37:36.511Z,20.9
2016-05-07T05:38:36.498Z,20.87
2016-05-07T05:39:36.484Z,20.93
2016-05-07T05:40:36.332Z,20.9
2016-05-07T05:41:36.615Z,20.96
2016-05-07T05:42:36.461Z,21.03
2016-05-07T05:43:36.434Z,20.94
2016-05-07T05:44:36.264Z,20.94
2016-05-07T05:45:36.408Z,20.94
2016-05-07T05:46:36.392Z,20.96
2016-05-07T05:47:36.082Z,20.98
2016-05-07T05:48:36.366Z,20.96
2016-05-07T05:49:36.603Z,21.03
2016-05-07T05:50:36.340Z,20.96
2016-05-07T05:51:36.186Z,21.01
2016-05-07T05:52:36.314Z,21.05
2016-05-07T05:53:36.145Z,21.05
2016-05-07T05:54:36.304Z,21.03
2016-05-07T05:55:36.291Z,21.03
2016-05-07T05:56:36.263Z,21.09
2016-05-07T05:57:36.765Z,21.06
2016-05-07T05:58:36.252Z,21.11
2016-05-07T05:59:36.240Z,21.06
2016-05-07T06:00:36.243Z,21.03
2016-05-07T06:01:36.213Z,21.12
2016-05-07T06:02:36.201Z,21.11
2016-05-07T06:03:36.187Z,21.13
2016-05-07T06:04:36.174Z,21.16
2016-05-07T06:05:36.599Z,21.05
2016-05-07T06:06:36.149Z,21.09
2016-05-07T06:07:36.198Z,21.18
2016-05-07T06:08:36.123Z,21.16
2016-05-07T06:09:36.110Z,21.03
2016-05-07T06:10:36.113Z,21.06
2016-05-07T06:11:36.100Z,21.13
2016-05-07T06:12:36.086Z,21.15
2016-05-07T06:13:36.761Z,21.18
2016-05-07T06:14:36.045Z,21.12
2016-05-07T06:15:36.033Z,21.16
2016-05-07T06:16:36.051Z,21.16
2016-05-07T06:17:36.022Z,21.13
2016-05-07T06:18:36.009Z,21.12
2016-05-07T06:19:35.997Z,21.15
2016-05-07T06:20:35.984Z,21.15
2016-05-07T06:21:36.080Z,21.12
2016-05-07T06:22:35.630Z,21.16
2016-05-07T06:23:35.929Z,21.12
2016-05-07T06:24:35.932Z,21.18
2016-05-07T06:25:35.903Z,21.13
2016-05-07T06:26:35.890Z,21.19
2016-05-07T06:27:36.361Z,21.19
2016-05-07T06:28:35.880Z,21.16
2016-05-07T06:29:36.101Z,21.11
2016-05-07T06:30:35.854Z,21.16
2016-05-07T06:31:35.684Z,21.13
2016-05-07T06:32:35.843Z,21.08
2016-05-07T06:33:35.691Z,21.12
2016-05-07T06:34:35.646Z,21.11
2016-05-07T06:35:35.820Z,21.19
2016-05-07T06:36:35.777Z,21.12
2016-05-07T06:37:36.107Z,21.16
2016-05-07T06:38:35.751Z,21.22
2016-05-07T06:39:35.722Z,21.13
2016-05-07T06:40:35.725Z,21.15
2016-05-07T06:41:35.728Z,21.12
2016-05-07T06:42:36.120Z,21.16
2016-05-07T06:43:35.529Z,21.13
2016-05-07T06:44:35.672Z,21.19
2016-05-07T06:45:36.863Z,21.13
2016-05-07T06:46:35.662Z,21.24
2016-05-07T06:47:35.634Z,21.22
2016-05-07T06:48:35.622Z,21.22
2016-05-07T06:49:35.608Z,21.12
2016-05-07T06:50:35.611Z,21.21
2016-05-07T06:51:35.583Z,21.24
2016-05-07T06:52:35.569Z,21.28
2016-05-07T06:53:35.556Z,21.22
2016-05-07T06:54:35.559Z,21.26
2016-05-07T06:55:35.530Z,21.27
2016-05-07T06:56:35.533Z,21.22
2016-05-07T06:57:35.301Z,21.24
2016-05-07T06:58:35.508Z,21.28
2016-05-07T06:59:35.510Z,21.24
2016-05-07T07:00:35.481Z,21.27
2016-05-07T07:01:35.468Z,21.26
2016-05-07T07:02:35.455Z,21.26
2016-05-07T07:03:35.443Z,21.26
2016-05-07T07:04:35.430Z,21.22
2016-05-07T07:05:35.417Z,21.28
2016-05-07T07:06:35.404Z,21.27
2016-05-07T07:07:35.234Z,21.24
2016-05-07T07:08:35.222Z,21.24
2016-05-07T07:09:35.209Z,21.31
2016-05-07T07:10:35.351Z,21.31
2016-05-07T07:11:35.340Z,21.26
2016-05-07T07:12:35.295Z,21.33
2016-05-07T07:13:35.314Z,21.33
2016-05-07T07:14:35.300Z,21.3
2016-05-07T07:15:35.287Z,21.3
2016-05-07T07:16:35.289Z,21.3
2016-05-07T07:17:35.262Z,21.31
2016-05-07T07:18:35.249Z,21.28
2016-05-07T07:19:35.095Z,21.28
2016-05-07T07:20:35.066Z,21.3
2016-05-07T07:21:35.210Z,21.33
2016-05-07T07:22:35.041Z,21.28
2016-05-07T07:23:35.184Z,21.33
2016-05-07T07:24:35.187Z,21.26
2016-05-07T07:25:35.174Z,21.28
2016-05-07T07:26:35.161Z,21.19
2016-05-07T07:27:35.304Z,21.27
2016-05-07T07:28:35.119Z,21.27
2016-05-07T07:29:35.121Z,21.22
2016-05-07T07:30:35.094Z,21.28
2016-05-07T07:31:35.113Z,21.31
2016-05-07T07:32:34.927Z,21.31
2016-05-07T07:33:35.054Z,21.31
2016-05-07T07:34:35.166Z,21.28
2016-05-07T07:35:35.044Z,21.22
2016-05-07T07:36:35.016Z,21.31
2016-05-07T07:37:35.019Z,21.34
2016-05-07T07:38:35.006Z,21.26
2016-05-07T07:39:34.993Z,21.28
2016-05-07T07:40:34.995Z,21.31
2016-05-07T07:41:34.967Z,21.3
2016-05-07T07:42:35.157Z,21.34
2016-05-07T07:43:34.941Z,21.4
2016-05-07T07:44:34.928Z,21.33
2016-05-07T07:45:34.915Z,21.43
2016-05-07T07:46:34.902Z,21.37
2016-05-07T07:47:34.920Z,21.33
2016-05-07T07:48:34.720Z,21.33
2016-05-07T07:49:34.864Z,21.38
2016-05-07T07:50:35.116Z,21.4
2016-05-07T07:51:34.681Z,21.36
2016-05-07T07:52:34.839Z,21.37
2016-05-07T07:53:34.828Z,21.43
2016-05-07T07:54:34.814Z,21.45
2016-05-07T07:55:34.786Z,21.4
2016-05-07T07:56:34.633Z,21.36
2016-05-07T07:57:34.635Z,21.42
2016-05-07T07:58:35.122Z,21.43
2016-05-07T07:59:34.749Z,21.42
2016-05-07T08:00:34.736Z,21.42
2016-05-07T08:01:34.724Z,21.38
2016-05-07T08:02:34.555Z,21.4
2016-05-07T08:03:34.729Z,21.45
2016-05-07T08:04:34.685Z,21.43
2016-05-07T08:05:34.671Z,21.36
2016-05-07T08:06:35.160Z,21.4
2016-05-07T08:07:34.490Z,21.45
2016-05-07T08:08:34.633Z,21.43
2016-05-07T08:09:34.307Z,21.34
2016-05-07T08:10:34.623Z,21.31
2016-05-07T08:11:34.626Z,21.36
2016-05-07T08:12:34.597Z,21.43
2016-05-07T08:13:34.584Z,21.37
2016-05-07T08:14:35.181Z,21.37
2016-05-07T08:15:34.558Z,21.37
2016-05-07T08:16:34.530Z,21.46
2016-05-07T08:17:34.532Z,21.37
2016-05-07T08:18:34.519Z,21.49
2016-05-07T08:19:34.334Z,21.48
2016-05-07T08:20:34.494Z,21.61
2016-05-07T08:21:34.497Z,21.49
2016-05-07T08:22:35.171Z,21.38
2016-05-07T08:23:34.455Z,21.4
2016-05-07T08:24:34.457Z,21.53
2016-05-07T08:25:34.460Z,21.49
2016-05-07T08:26:34.261Z,21.53
2016-05-07T08:27:34.263Z,21.52
2016-05-07T08:28:34.390Z,21.52
2016-05-07T08:29:34.382Z,21.49
2016-05-07T08:30:34.505Z,21.52
2016-05-07T08:31:34.443Z,21.51
2016-05-07T08:32:34.472Z,21.55
2016-05-07T08:33:34.346Z,21.49
2016-05-07T08:34:34.373Z,21.59
2016-05-07T08:35:34.391Z,21.52
2016-05-07T08:36:34.394Z,21.51
2016-05-07T08:37:34.537Z,21.52
2016-05-07T08:38:34.757Z,21.56
2016-05-07T08:39:34.399Z,21.55
2016-05-07T08:40:34.549Z,21.49
2016-05-07T08:41:34.369Z,21.58
2016-05-07T08:42:34.394Z,21.52
2016-05-07T08:43:34.527Z,21.59
2016-05-07T08:44:34.519Z,21.63
2016-05-07T08:45:34.493Z,21.68
2016-05-07T08:46:34.748Z,21.59
2016-05-07T08:47:34.486Z,21.66
2016-05-07T08:48:34.475Z,21.68
2016-05-07T08:49:34.465Z,21.71
2016-05-07T08:50:34.452Z,21.68
2016-05-07T08:51:34.440Z,21.75
2016-05-07T08:52:34.428Z,21.73
2016-05-07T08:53:34.431Z,21.73
2016-05-07T08:54:34.794Z,21.77
2016-05-07T08:55:34.406Z,21.71
2016-05-07T08:56:34.379Z,21.75
2016-05-07T08:57:34.507Z,21.74
2016-05-07T08:58:34.369Z,21.82
2016-05-07T08:59:34.356Z,21.77
2016-05-07T09:00:34.015Z,21.81
2016-05-07T09:01:34.424Z,21.75
2016-05-07T09:02:34.318Z,21.79
2016-05-07T09:03:34.304Z,21.83
2016-05-07T09:04:34.308Z,21.79
2016-05-07T09:05:34.122Z,21.79
2016-05-07T09:06:34.282Z,21.82
2016-05-07T09:07:34.268Z,21.86
2016-05-07T09:08:34.224Z,21.89
2016-05-07T09:09:34.258Z,21.74
2016-05-07T09:10:34.215Z,21.75
2016-05-07T09:11:34.201Z,21.79
2016-05-07T09:12:34.204Z,21.83
2016-05-07T09:13:34.175Z,21.75
2016-05-07T09:14:34.163Z,21.82
2016-05-07T09:15:34.165Z,21.71
2016-05-07T09:16:34.137Z,21.82
2016-05-07T09:17:34.420Z,21.83
2016-05-07T09:18:33.970Z,21.91
2016-05-07T09:19:34.098Z,21.79
2016-05-07T09:20:34.085Z,21.83
2016-05-07T09:21:33.931Z,21.86
2016-05-07T09:22:33.917Z,21.89
2016-05-07T09:23:34.062Z,21.83
2016-05-07T09:24:34.048Z,21.89
2016-05-07T09:25:34.426Z,21.81
2016-05-07T09:26:34.008Z,21.93
2016-05-07T09:27:34.197Z,21.89
2016-05-07T09:28:33.997Z,21.96
2016-05-07T09:29:33.828Z,21.81
2016-05-07T09:30:33.971Z,21.89
2016-05-07T09:31:33.958Z,21.81
2016-05-07T09:32:33.944Z,21.9
2016-05-07T09:33:34.479Z,21.94
2016-05-07T09:34:33.919Z,21.86
2016-05-07T09:35:33.922Z,21.85
2016-05-07T09:36:33.894Z,21.81
2016-05-07T09:37:33.880Z,21.85
2016-05-07T09:38:33.868Z,21.89
2016-05-07T09:39:33.870Z,21.83
2016-05-07T09:40:33.841Z,21.89
2016-05-07T09:41:34.485Z,21.82
2016-05-07T09:42:33.535Z,21.9
2016-05-07T09:43:33.834Z,21.91
2016-05-07T09:44:33.649Z,21.86
2016-05-07T09:45:33.621Z,21.86
2016-05-07T09:46:33.765Z,21.9
2016-05-07T09:47:33.767Z,21.91
2016-05-07T09:48:33.754Z,21.93
2016-05-07T09:49:34.334Z,21.94
2016-05-07T09:50:33.759Z,21.93
2016-05-07T09:51:33.715Z,21.9
2016-05-07T09:52:33.703Z,21.85
2016-05-07T09:53:33.689Z,22.01
2016-05-07T09:54:33.504Z,21.99
2016-05-07T09:55:33.663Z,22.02
2016-05-07T09:56:33.667Z,21.93
2016-05-07T09:57:33.747Z,21.93
2016-05-07T09:58:33.625Z,21.94
2016-05-07T09:59:33.627Z,21.98
2016-05-07T10:00:33.614Z,22.04
2016-05-07T10:01:33.430Z,21.94
2016-05-07T10:02:33.605Z,21.99
2016-05-07T10:03:33.560Z,21.99
2016-05-07T10:04:33.563Z,21.98
2016-05-07T10:05:33.753Z,21.9
2016-05-07T10:06:33.536Z,21.94
2016-05-07T10:07:33.508Z,21.94
2016-05-07T10:08:33.355Z,21.98
2016-05-07T10:09:33.341Z,21.96
2016-05-07T10:10:33.485Z,21.96
2016-05-07T10:11:33.332Z,21.93
2016-05-07T10:12:33.459Z,21.91
2016-05-07T10:13:33.743Z,21.94
2016-05-07T10:14:33.277Z,21.91
2016-05-07T10:15:33.420Z,21.91
2016-05-07T10:16:33.407Z,21.93
2016-05-07T10:17:33.395Z,22.02
2016-05-07T10:18:33.398Z,22.02
2016-05-07T10:19:33.368Z,21.99
2016-05-07T10:20:33.356Z,22.02
2016-05-07T10:21:33.202Z,21.98
2016-05-07T10:22:33.345Z,21.99
2016-05-07T10:23:33.331Z,21.99
2016-05-07T10:24:33.163Z,21.93
2016-05-07T10:25:33.307Z,21.93
2016-05-07T10:26:33.137Z,22.02
2016-05-07T10:27:33.467Z,21.98
2016-05-07T10:28:33.420Z,21.99
2016-05-07T10:29:33.265Z,22.08
2016-05-07T10:30:33.252Z,22.01
2016-05-07T10:31:33.240Z,22.01
2016-05-07T10:32:33.242Z,22.05
2016-05-07T10:33:33.042Z,22.02
2016-05-07T10:34:33.185Z,22.04
2016-05-07T10:35:33.189Z,22.06
2016-05-07T10:36:33.409Z,22.06
2016-05-07T10:37:33.161Z,22.05
2016-05-07T10:38:33.150Z,22.09
2016-05-07T10:39:33.136Z,22.08
2016-05-07T10:40:33.138Z,22.11
2016-05-07T10:41:33.110Z,22.09
2016-05-07T10:42:32.957Z,22.12
2016-05-07T10:43:33.085Z,22.08
2016-05-07T10:44:33.274Z,22.12
2016-05-07T10:45:33.058Z,22.06
2016-05-07T10:46:33.046Z,22.08
2016-05-07T10:47:33.032Z,22.08
2016-05-07T10:48:33.035Z,22.17
2016-05-07T10:49:32.882Z,22.08
2016-05-07T10:50:32.994Z,22.12
2016-05-07T10:51:32.981Z,22.14
2016-05-07T10:52:33.281Z,22.15
2016-05-07T10:53:32.971Z,22.19
2016-05-07T10:54:32.786Z,22.29
2016-05-07T10:55:32.945Z,22.23
2016-05-07T10:56:32.931Z,22.23
2016-05-07T10:57:32.951Z,22.23
2016-05-07T10:58:32.906Z,22.14
2016-05-07T10:59:32.892Z,22.31
2016-05-07T11:00:33.428Z,22.2
2016-05-07T11:01:32.867Z,22.29
2016-05-07T11:02:32.853Z,22.23
2016-05-07T11:03:32.685Z,22.29
2016-05-07T11:04:32.673Z,22.29
2016-05-07T11:05:32.831Z,22.26
2016-05-07T11:06:32.661Z,22.21
2016-05-07T11:07:32.665Z,22.2
2016-05-07T11:08:33.527Z,22.27
2016-05-07T11:09:32.779Z,22.21
2016-05-07T11:10:32.766Z,22.17
2016-05-07T11:11:32.597Z,22.27
2016-05-07T11:12:33.491Z,22.29
2016-05-07T11:13:32.743Z,22.24
2016-05-07T11:14:32.715Z,22.27
2016-05-07T11:15:32.530Z,22.19
2016-05-07T11:16:32.688Z,22.23
2016-05-07T11:17:32.676Z,22.19
2016-05-07T11:18:32.663Z,22.21
2016-05-07T11:19:32.666Z,22.21
2016-05-07T11:20:32.652Z,22.35
2016-05-07T11:21:32.624Z,22.3
2016-05-07T11:22:32.626Z,22.27
2016-05-07T11:23:32.942Z,22.27
2016-05-07T11:24:32.695Z,22.33
2016-05-07T11:25:32.573Z,22.35
2016-05-07T11:26:32.559Z,22.27
2016-05-07T11:27:32.406Z,22.35
2016-05-07T11:28:32.549Z,22.45
2016-05-07T11:29:32.411Z,22.49
2016-05-07T11:30:32.539Z,22.52
2016-05-07T11:31:32.511Z,22.42
2016-05-07T11:32:32.747Z,22.42
2016-05-07T11:33:32.485Z,22.45
2016-05-07T11:34:32.472Z,22.44
2016-05-07T11:35:32.475Z,22.57
2016-05-07T11:36:32.461Z,22.56
2016-05-07T11:37:32.432Z,22.59
2016-05-07T11:38:32.436Z,22.48
2016-05-07T11:39:32.422Z,22.44
2016-05-07T11:40:32.753Z,22.49
2016-05-07T11:41:32.396Z,22.52
2016-05-07T11:42:32.228Z,22.35
2016-05-07T11:43:32.355Z,22.45
2016-05-07T11:44:32.357Z,22.38
2016-05-07T11:45:32.345Z,22.45
2016-05-07T11:46:32.316Z,22.33
2016-05-07T11:47:32.179Z,22.44
2016-05-07T11:48:32.759Z,22.38
2016-05-07T11:49:32.293Z,22.45
2016-05-07T11:50:32.124Z,22.38
2016-05-07T11:51:32.268Z,22.48
2016-05-07T11:52:32.098Z,22.44
2016-05-07T11:53:32.116Z,22.48
2016-05-07T11:54:32.229Z,22.38
2016-05-07T11:55:32.075Z,22.45
2016-05-07T11:56:32.062Z,22.45
2016-05-07T11:57:33.048Z,22.45
2016-05-07T11:58:31.880Z,22.38
2016-05-07T11:59:32.023Z,22.38
2016-05-07T12:00:32.010Z,22.41
2016-05-07T12:01:31.997Z,22.48
2016-05-07T12:02:31.984Z,22.38
2016-05-07T12:03:31.972Z,22.49
2016-05-07T12:04:31.958Z,22.45
2016-05-07T12:05:32.117Z,22.41
2016-05-07T12:06:32.105Z,22.44
2016-05-07T12:07:32.076Z,22.45
2016-05-07T12:08:32.063Z,22.42
2016-05-07T12:09:32.050Z,22.57
2016-05-07T12:10:32.037Z,22.51
2016-05-07T12:11:32.039Z,22.45
2016-05-07T12:12:31.871Z,22.51
2016-05-07T12:13:32.014Z,22.42
2016-05-07T12:14:31.985Z,22.48
2016-05-07T12:15:31.988Z,22.48
2016-05-07T12:16:31.991Z,22.51
2016-05-07T12:17:31.962Z,22.46
2016-05-07T12:18:31.949Z,22.51
2016-05-07T12:19:31.936Z,22.52
2016-05-07T12:20:31.924Z,22.52
2016-05-07T12:21:31.910Z,22.56
2016-05-07T12:22:31.757Z,22.51
2016-05-07T12:23:31.901Z,22.45
2016-05-07T12:24:31.887Z,22.42
2016-05-07T12:25:31.702Z,22.45
2016-05-07T12:26:31.845Z,22.48
2016-05-07T12:27:32.615Z,22.48
2016-05-07T12:28:31.679Z,22.54
2016-05-07T12:29:31.838Z,22.45
2016-05-07T12:30:31.809Z,22.56
2016-05-07T12:31:31.797Z,22.46
2016-05-07T12:32:31.784Z,22.48
2016-05-07T12:33:31.786Z,22.51
2016-05-07T12:34:31.759Z,22.48
2016-05-07T12:35:31.744Z,22.44
2016-05-07T12:36:31.748Z,22.45
2016-05-07T12:37:31.813Z,22.45
2016-05-07T12:38:31.566Z,22.44
2016-05-07T12:39:31.693Z,22.45
2016-05-07T12:40:31.697Z,22.48
2016-05-07T12:41:31.683Z,22.49
2016-05-07T12:42:31.530Z,22.46
2016-05-07T12:43:31.657Z,22.57
2016-05-07T12:44:31.644Z,22.51
2016-05-07T12:45:31.772Z,22.44
2016-05-07T12:46:31.619Z,22.54
2016-05-07T12:47:31.605Z,22.52
2016-05-07T12:48:31.593Z,22.54
2016-05-07T12:49:31.439Z,22.49
2016-05-07T12:50:31.566Z,22.49
2016-05-07T12:51:31.569Z,22.56
2016-05-07T12:52:31.540Z,22.49
2016-05-07T12:53:31.746Z,22.56
2016-05-07T12:54:31.529Z,22.54